ABR4413 EGNX-EGAC
Flight info
| Callsign | ABR4413 |
|---|---|
| Flight time | 0h 45m |
| Altitude | 28000 |
| Route | TNT Q4 WAL M146 ROBOP M147 MAGEE |
| Aircraft | B738/M-SDE2E3FGHIRWXY/LB1 |
Departure
| Time | 2026-04-14 12:00 |
|---|---|
| Airport | East Midlands Airport (EGNX) |
Arrival
| Time | 2026-04-14 12:46 |
|---|---|
| Airport | George Best Belfast City Airport (EGAC) |
| Time | Latitude | Longitude | Altitude | Speed | Heading |
|---|---|---|---|---|---|
| 2026-04-14 11:49 | 52.82812 | -1.31551 | 300 ft | 0 kts | 133° |
| 2026-04-14 11:50 | 52.82813 | -1.31554 | 300 ft | 2 kts | 133° |
| 2026-04-14 11:51 | 52.82834 | -1.31593 | 300 ft | 3 kts | 127° |
| 2026-04-14 11:51 | 52.82846 | -1.31620 | 304 ft | 3 kts | 123° |
| 2026-04-14 11:51 | 52.82857 | -1.31648 | 302 ft | 3 kts | 120° |
| 2026-04-14 11:51 | 52.82866 | -1.31677 | 301 ft | 3 kts | 115° |
| 2026-04-14 11:52 | 52.82875 | -1.31708 | 301 ft | 3 kts | 110° |
| 2026-04-14 11:52 | 52.82881 | -1.31739 | 302 ft | 3 kts | 100° |
| 2026-04-14 11:52 | 52.82883 | -1.31768 | 301 ft | 2 kts | 88° |
| 2026-04-14 11:52 | 52.82883 | -1.31772 | 300 ft | 1 kts | 86° |
| 2026-04-14 11:56 | 52.82883 | -1.31771 | 300 ft | 0 kts | 86° |
| 2026-04-14 11:56 | 52.82883 | -1.31764 | 300 ft | 1 kts | 86° |
| 2026-04-14 11:56 | 52.82892 | -1.31731 | 302 ft | 6 kts | 50° |
| 2026-04-14 11:56 | 52.82937 | -1.31689 | 300 ft | 8 kts | 41° |
| 2026-04-14 11:57 | 52.82953 | -1.31596 | 300 ft | 9 kts | 87° |
| 2026-04-14 11:57 | 52.82955 | -1.31474 | 300 ft | 12 kts | 88° |
| 2026-04-14 11:57 | 52.82958 | -1.31336 | 303 ft | 12 kts | 88° |
| 2026-04-14 11:57 | 52.82961 | -1.31191 | 301 ft | 13 kts | 88° |
| 2026-04-14 11:58 | 52.82963 | -1.31047 | 303 ft | 12 kts | 88° |
| 2026-04-14 11:58 | 52.82965 | -1.30912 | 300 ft | 10 kts | 89° |
| 2026-04-14 11:58 | 52.82968 | -1.30798 | 300 ft | 10 kts | 81° |
| 2026-04-14 11:58 | 52.83011 | -1.30700 | 300 ft | 11 kts | 31° |
| 2026-04-14 11:59 | 52.83084 | -1.30681 | 302 ft | 11 kts | 356° |
| 2026-04-14 11:59 | 52.83134 | -1.30730 | 301 ft | 9 kts | 289° |
| 2026-04-14 11:59 | 52.83136 | -1.30835 | 301 ft | 9 kts | 269° |
| 2026-04-14 11:59 | 52.83134 | -1.30943 | 301 ft | 10 kts | 268° |
| 2026-04-14 12:00 | 52.83125 | -1.31460 | 306 ft | 85 kts | 268° |
| 2026-04-14 12:00 | 52.83099 | -1.32855 | 308 ft | 154 kts | 266° |
| 2026-04-14 12:00 | 52.83087 | -1.34723 | 900 ft | 167 kts | 264° |
| 2026-04-14 12:00 | 52.83107 | -1.36734 | 1709 ft | 182 kts | 265° |
| 2026-04-14 12:01 | 52.83301 | -1.38927 | 2433 ft | 202 kts | 283° |
| 2026-04-14 12:01 | 52.83901 | -1.41056 | 3358 ft | 204 kts | 290° |
| 2026-04-14 12:01 | 52.84547 | -1.43171 | 4124 ft | 211 kts | 289° |
| 2026-04-14 12:01 | 52.85213 | -1.45424 | 4736 ft | 225 kts | 291° |
| 2026-04-14 12:02 | 52.85989 | -1.47839 | 5178 ft | 253 kts | 293° |
| 2026-04-14 12:02 | 52.86852 | -1.50491 | 5802 ft | 267 kts | 293° |
| 2026-04-14 12:02 | 52.87751 | -1.53159 | 5973 ft | 271 kts | 298° |
| 2026-04-14 12:02 | 52.88948 | -1.55587 | 5983 ft | 276 kts | 311° |
| 2026-04-14 12:03 | 52.90459 | -1.57586 | 5996 ft | 281 kts | 323° |
| 2026-04-14 12:03 | 52.92211 | -1.59088 | 6203 ft | 288 kts | 335° |
| 2026-04-14 12:03 | 52.94093 | -1.60253 | 7138 ft | 288 kts | 337° |
| 2026-04-14 12:03 | 52.95972 | -1.61357 | 8206 ft | 286 kts | 337° |
| 2026-04-14 12:04 | 52.97863 | -1.62474 | 9127 ft | 291 kts | 337° |
| 2026-04-14 12:04 | 52.99782 | -1.63618 | 10030 ft | 295 kts | 336° |
| 2026-04-14 12:04 | 53.01725 | -1.64784 | 10875 ft | 298 kts | 336° |
| 2026-04-14 12:04 | 53.03669 | -1.66021 | 11749 ft | 299 kts | 329° |
| 2026-04-14 12:05 | 53.05231 | -1.68141 | 12574 ft | 293 kts | 303° |
| 2026-04-14 12:05 | 53.06156 | -1.71108 | 13459 ft | 290 kts | 285° |
| 2026-04-14 12:05 | 53.06741 | -1.74331 | 14240 ft | 293 kts | 283° |
| 2026-04-14 12:05 | 53.07283 | -1.77618 | 15006 ft | 296 kts | 282° |
| 2026-04-14 12:06 | 53.07823 | -1.80940 | 15699 ft | 303 kts | 283° |
| 2026-04-14 12:06 | 53.08397 | -1.84450 | 15893 ft | 326 kts | 283° |
| 2026-04-14 12:06 | 53.09019 | -1.88217 | 16099 ft | 347 kts | 284° |
| 2026-04-14 12:06 | 53.09677 | -1.92150 | 16605 ft | 357 kts | 284° |
| 2026-04-14 12:07 | 53.10351 | -1.96155 | 17279 ft | 361 kts | 284° |
| 2026-04-14 12:07 | 53.11021 | -2.00132 | 18076 ft | 363 kts | 284° |
| 2026-04-14 12:07 | 53.11705 | -2.04194 | 18734 ft | 366 kts | 284° |
| 2026-04-14 12:07 | 53.12392 | -2.08283 | 19394 ft | 367 kts | 284° |
| 2026-04-14 12:08 | 53.13079 | -2.12381 | 20098 ft | 368 kts | 284° |
| 2026-04-14 12:08 | 53.13764 | -2.16489 | 20779 ft | 369 kts | 284° |
| 2026-04-14 12:08 | 53.14531 | -2.20575 | 21423 ft | 371 kts | 290° |
| 2026-04-14 12:08 | 53.15629 | -2.24487 | 22050 ft | 374 kts | 295° |
| 2026-04-14 12:09 | 53.16787 | -2.28314 | 22672 ft | 376 kts | 295° |
| 2026-04-14 12:09 | 53.17969 | -2.32205 | 23297 ft | 377 kts | 295° |
| 2026-04-14 12:09 | 53.19143 | -2.36088 | 24024 ft | 373 kts | 295° |
| 2026-04-14 12:09 | 53.20292 | -2.39916 | 24812 ft | 366 kts | 295° |
| 2026-04-14 12:10 | 53.21417 | -2.43689 | 25554 ft | 361 kts | 295° |
| 2026-04-14 12:10 | 53.22524 | -2.47421 | 26225 ft | 358 kts | 295° |
| 2026-04-14 12:10 | 53.23622 | -2.51132 | 26873 ft | 355 kts | 295° |
| 2026-04-14 12:10 | 53.24709 | -2.54815 | 27542 ft | 352 kts | 295° |
| 2026-04-14 12:11 | 53.25789 | -2.58481 | 28009 ft | 354 kts | 295° |
| 2026-04-14 12:11 | 53.26864 | -2.62134 | 27996 ft | 354 kts | 295° |
| 2026-04-14 12:11 | 53.29023 | -2.69482 | 28021 ft | 352 kts | 295° |
| 2026-04-14 12:12 | 53.31036 | -2.76934 | 28023 ft | 351 kts | 290° |
| 2026-04-14 12:12 | 53.32742 | -2.84557 | 28021 ft | 349 kts | 290° |
| 2026-04-14 12:13 | 53.34436 | -2.92180 | 28025 ft | 349 kts | 290° |
| 2026-04-14 12:13 | 53.36145 | -2.99807 | 28021 ft | 351 kts | 290° |
| 2026-04-14 12:14 | 53.37856 | -3.07445 | 28006 ft | 354 kts | 290° |
| 2026-04-14 12:14 | 53.40165 | -3.14705 | 27979 ft | 355 kts | 303° |
| 2026-04-14 12:15 | 53.41741 | -3.17896 | 27980 ft | 357 kts | 310° |
| 2026-04-14 12:15 | 53.43475 | -3.20864 | 27983 ft | 356 kts | 311° |
| 2026-04-14 12:15 | 53.45226 | -3.23805 | 27982 ft | 356 kts | 311° |
| 2026-04-14 12:15 | 53.46973 | -3.26743 | 27986 ft | 355 kts | 311° |
| 2026-04-14 12:16 | 53.48692 | -3.29651 | 27992 ft | 355 kts | 311° |
| 2026-04-14 12:16 | 53.50427 | -3.32607 | 27983 ft | 355 kts | 310° |
| 2026-04-14 12:16 | 53.52161 | -3.35570 | 27994 ft | 356 kts | 310° |
| 2026-04-14 12:16 | 53.53895 | -3.38542 | 27987 ft | 357 kts | 310° |
| 2026-04-14 12:17 | 53.55632 | -3.41524 | 27972 ft | 357 kts | 310° |
| 2026-04-14 12:17 | 53.57364 | -3.44518 | 27972 ft | 356 kts | 309° |
| 2026-04-14 12:17 | 53.58915 | -3.47737 | 27972 ft | 353 kts | 302° |
| 2026-04-14 12:17 | 53.60325 | -3.51117 | 27976 ft | 353 kts | 302° |
| 2026-04-14 12:18 | 53.61711 | -3.54466 | 27974 ft | 354 kts | 302° |
| 2026-04-14 12:18 | 53.63127 | -3.57862 | 27968 ft | 355 kts | 302° |
| 2026-04-14 12:18 | 53.64554 | -3.61265 | 27960 ft | 355 kts | 302° |
| 2026-04-14 12:18 | 53.65981 | -3.64667 | 27959 ft | 356 kts | 302° |
| 2026-04-14 12:19 | 53.67408 | -3.68073 | 27942 ft | 356 kts | 302° |
| 2026-04-14 12:19 | 53.68834 | -3.71484 | 27956 ft | 356 kts | 302° |
| 2026-04-14 12:19 | 53.70258 | -3.74894 | 27948 ft | 355 kts | 302° |
| 2026-04-14 12:19 | 53.71679 | -3.78305 | 27951 ft | 355 kts | 302° |
| 2026-04-14 12:20 | 53.73079 | -3.81668 | 27943 ft | 354 kts | 302° |
| 2026-04-14 12:20 | 53.74483 | -3.85043 | 27928 ft | 346 kts | 302° |
| 2026-04-14 12:20 | 53.75854 | -3.88341 | 27949 ft | 341 kts | 302° |
| 2026-04-14 12:20 | 53.77214 | -3.91622 | 27953 ft | 340 kts | 302° |
| 2026-04-14 12:21 | 53.78572 | -3.94904 | 27965 ft | 341 kts | 302° |
| 2026-04-14 12:21 | 53.79930 | -3.98190 | 27959 ft | 342 kts | 301° |
| 2026-04-14 12:21 | 53.81284 | -4.01469 | 27887 ft | 336 kts | 301° |
| 2026-04-14 12:21 | 53.82610 | -4.04682 | 27487 ft | 333 kts | 301° |
| 2026-04-14 12:22 | 53.83939 | -4.07909 | 26888 ft | 335 kts | 301° |
| 2026-04-14 12:22 | 53.85260 | -4.11122 | 26276 ft | 338 kts | 301° |
| 2026-04-14 12:22 | 53.86606 | -4.14398 | 25764 ft | 339 kts | 301° |
| 2026-04-14 12:22 | 53.87949 | -4.17669 | 25328 ft | 337 kts | 301° |
| 2026-04-14 12:23 | 53.89283 | -4.20927 | 24896 ft | 336 kts | 301° |
| 2026-04-14 12:23 | 53.90613 | -4.24179 | 24443 ft | 336 kts | 301° |
| 2026-04-14 12:23 | 53.91942 | -4.27433 | 23997 ft | 336 kts | 301° |
| 2026-04-14 12:23 | 53.93271 | -4.30691 | 23549 ft | 335 kts | 301° |
| 2026-04-14 12:24 | 53.94597 | -4.33946 | 23060 ft | 335 kts | 301° |
| 2026-04-14 12:24 | 53.95900 | -4.37149 | 22603 ft | 334 kts | 301° |
| 2026-04-14 12:24 | 53.97216 | -4.40385 | 22138 ft | 332 kts | 301° |
| 2026-04-14 12:24 | 53.98528 | -4.43615 | 21705 ft | 332 kts | 301° |
| 2026-04-14 12:25 | 53.99835 | -4.46839 | 21306 ft | 331 kts | 301° |
| 2026-04-14 12:25 | 54.01139 | -4.50057 | 20936 ft | 330 kts | 301° |
| 2026-04-14 12:25 | 54.02527 | -4.53175 | 20554 ft | 332 kts | 307° |
| 2026-04-14 12:25 | 54.04073 | -4.56105 | 20153 ft | 332 kts | 309° |
| 2026-04-14 12:26 | 54.05641 | -4.58986 | 19744 ft | 331 kts | 309° |
| 2026-04-14 12:26 | 54.07209 | -4.61854 | 19335 ft | 331 kts | 309° |
| 2026-04-14 12:26 | 54.08752 | -4.64685 | 18985 ft | 330 kts | 309° |
| 2026-04-14 12:26 | 54.10308 | -4.67557 | 18611 ft | 330 kts | 309° |
| 2026-04-14 12:27 | 54.11859 | -4.70430 | 18229 ft | 330 kts | 308° |
| 2026-04-14 12:27 | 54.13409 | -4.73313 | 17810 ft | 329 kts | 308° |
| 2026-04-14 12:27 | 54.14949 | -4.76183 | 17417 ft | 327 kts | 308° |
| 2026-04-14 12:27 | 54.16482 | -4.79046 | 17021 ft | 326 kts | 308° |
| 2026-04-14 12:28 | 54.18005 | -4.81896 | 16607 ft | 325 kts | 308° |
| 2026-04-14 12:28 | 54.19523 | -4.84742 | 16234 ft | 323 kts | 308° |
| 2026-04-14 12:28 | 54.21013 | -4.87539 | 15893 ft | 322 kts | 308° |
| 2026-04-14 12:28 | 54.22517 | -4.90366 | 15532 ft | 321 kts | 308° |
| 2026-04-14 12:29 | 54.24016 | -4.93186 | 15177 ft | 320 kts | 308° |
| 2026-04-14 12:29 | 54.25509 | -4.96000 | 14813 ft | 319 kts | 308° |
| 2026-04-14 12:29 | 54.26994 | -4.98800 | 14442 ft | 318 kts | 308° |
| 2026-04-14 12:29 | 54.28475 | -5.01596 | 14079 ft | 317 kts | 307° |
| 2026-04-14 12:30 | 54.29951 | -5.04387 | 13726 ft | 315 kts | 307° |
| 2026-04-14 12:30 | 54.31421 | -5.07167 | 13336 ft | 314 kts | 307° |
| 2026-04-14 12:30 | 54.32864 | -5.09903 | 12975 ft | 313 kts | 308° |
| 2026-04-14 12:30 | 54.34318 | -5.12661 | 12614 ft | 312 kts | 307° |
| 2026-04-14 12:31 | 54.35768 | -5.15417 | 12245 ft | 311 kts | 308° |
| 2026-04-14 12:31 | 54.37212 | -5.18163 | 11896 ft | 310 kts | 307° |
| 2026-04-14 12:31 | 54.38653 | -5.20906 | 11541 ft | 309 kts | 307° |
| 2026-04-14 12:31 | 54.40088 | -5.23638 | 11187 ft | 308 kts | 308° |
| 2026-04-14 12:32 | 54.41520 | -5.26369 | 10845 ft | 307 kts | 308° |
| 2026-04-14 12:32 | 54.42944 | -5.29089 | 10587 ft | 304 kts | 308° |
| 2026-04-14 12:32 | 54.44319 | -5.31712 | 10508 ft | 295 kts | 307° |
| 2026-04-14 12:32 | 54.45835 | -5.34044 | 10341 ft | 295 kts | 325° |
| 2026-04-14 12:33 | 54.47660 | -5.35626 | 10108 ft | 293 kts | 332° |
| 2026-04-14 12:33 | 54.49520 | -5.37076 | 9796 ft | 294 kts | 332° |
| 2026-04-14 12:33 | 54.51387 | -5.38518 | 9509 ft | 294 kts | 332° |
| 2026-04-14 12:33 | 54.53242 | -5.39961 | 9249 ft | 292 kts | 332° |
| 2026-04-14 12:34 | 54.55088 | -5.41412 | 8945 ft | 291 kts | 332° |
| 2026-04-14 12:34 | 54.56901 | -5.42852 | 8650 ft | 290 kts | 332° |
| 2026-04-14 12:34 | 54.58726 | -5.44309 | 8348 ft | 290 kts | 332° |
| 2026-04-14 12:34 | 54.60553 | -5.45774 | 8046 ft | 288 kts | 332° |
| 2026-04-14 12:35 | 54.62357 | -5.47224 | 7832 ft | 281 kts | 332° |
| 2026-04-14 12:35 | 54.64103 | -5.48629 | 7595 ft | 276 kts | 331° |
| 2026-04-14 12:35 | 54.65847 | -5.50038 | 7299 ft | 277 kts | 331° |
| 2026-04-14 12:35 | 54.67593 | -5.51414 | 7084 ft | 276 kts | 337° |
| 2026-04-14 12:36 | 54.69477 | -5.52213 | 6730 ft | 281 kts | 347° |
| 2026-04-14 12:36 | 54.71417 | -5.52816 | 6377 ft | 285 kts | 348° |
| 2026-04-14 12:36 | 54.73375 | -5.53409 | 5999 ft | 287 kts | 348° |
| 2026-04-14 12:36 | 54.75323 | -5.53998 | 5611 ft | 289 kts | 348° |
| 2026-04-14 12:37 | 54.77304 | -5.54596 | 5248 ft | 290 kts | 349° |
| 2026-04-14 12:37 | 54.79275 | -5.55200 | 4858 ft | 285 kts | 349° |
| 2026-04-14 12:37 | 54.81210 | -5.55802 | 4458 ft | 280 kts | 348° |
| 2026-04-14 12:37 | 54.83112 | -5.56385 | 4070 ft | 276 kts | 349° |
| 2026-04-14 12:38 | 54.86558 | -5.58665 | 3268 ft | 261 kts | 309° |
| 2026-04-14 12:38 | 54.87411 | -5.61262 | 3030 ft | 236 kts | 275° |
| 2026-04-14 12:38 | 54.87350 | -5.63862 | 3011 ft | 203 kts | 240° |
| 2026-04-14 12:39 | 54.86569 | -5.65577 | 3019 ft | 173 kts | 206° |
| 2026-04-14 12:39 | 54.85519 | -5.66440 | 3025 ft | 166 kts | 199° |
| 2026-04-14 12:39 | 54.84459 | -5.67203 | 2926 ft | 163 kts | 198° |
| 2026-04-14 12:39 | 54.83417 | -5.67982 | 2626 ft | 164 kts | 198° |
| 2026-04-14 12:40 | 54.82373 | -5.68791 | 2559 ft | 164 kts | 198° |
| 2026-04-14 12:40 | 54.81370 | -5.69608 | 2504 ft | 154 kts | 198° |
| 2026-04-14 12:40 | 54.80430 | -5.70421 | 2503 ft | 149 kts | 199° |
| 2026-04-14 12:40 | 54.79504 | -5.71230 | 2518 ft | 150 kts | 198° |
| 2026-04-14 12:41 | 54.78568 | -5.72038 | 2482 ft | 149 kts | 198° |
| 2026-04-14 12:41 | 54.77635 | -5.72838 | 2180 ft | 151 kts | 198° |
| 2026-04-14 12:41 | 54.76703 | -5.73633 | 2052 ft | 152 kts | 198° |
| 2026-04-14 12:41 | 54.75747 | -5.74445 | 2023 ft | 153 kts | 198° |
| 2026-04-14 12:42 | 54.74769 | -5.75068 | 1997 ft | 147 kts | 188° |
| 2026-04-14 12:42 | 54.73784 | -5.75533 | 2008 ft | 145 kts | 188° |
| 2026-04-14 12:42 | 54.72853 | -5.75997 | 1864 ft | 136 kts | 188° |
| 2026-04-14 12:42 | 54.71948 | -5.76485 | 1835 ft | 138 kts | 188° |
| 2026-04-14 12:43 | 54.71041 | -5.76972 | 1799 ft | 134 kts | 188° |
| 2026-04-14 12:43 | 54.70167 | -5.77540 | 1793 ft | 136 kts | 197° |
| 2026-04-14 12:43 | 54.69350 | -5.78313 | 1707 ft | 133 kts | 198° |
| 2026-04-14 12:43 | 54.68565 | -5.79169 | 1526 ft | 138 kts | 203° |
| 2026-04-14 12:44 | 54.67763 | -5.80117 | 1334 ft | 141 kts | 205° |
| 2026-04-14 12:44 | 54.66957 | -5.81084 | 1123 ft | 143 kts | 205° |
| 2026-04-14 12:44 | 54.66135 | -5.82068 | 929 ft | 144 kts | 207° |
| 2026-04-14 12:45 | 54.64479 | -5.84054 | 514 ft | 146 kts | 209° |
| 2026-04-14 12:45 | 54.63643 | -5.85099 | 303 ft | 151 kts | 209° |
| 2026-04-14 12:45 | 54.62762 | -5.86133 | 138 ft | 152 kts | 210° |
| 2026-04-14 12:45 | 54.61905 | -5.87140 | 21 ft | 138 kts | 216° |
| 2026-04-14 12:46 | 54.61323 | -5.87837 | 19 ft | 55 kts | 214° |
| 2026-04-14 12:46 | 54.61184 | -5.88001 | 22 ft | 12 kts | 215° |
| 2026-04-14 12:46 | 54.61123 | -5.87996 | 21 ft | 10 kts | 135° |
| 2026-04-14 12:46 | 54.61089 | -5.87909 | 21 ft | 7 kts | 114° |
| 2026-04-14 12:47 | 54.61086 | -5.87823 | 21 ft | 7 kts | 73° |
| 2026-04-14 12:47 | 54.61111 | -5.87759 | 22 ft | 6 kts | 64° |
| 2026-04-14 12:47 | 54.61129 | -5.87709 | 21 ft | 4 kts | 60° |
| 2026-04-14 12:47 | 54.61123 | -5.87675 | 21 ft | 1 kts | 120° |
| 2026-04-14 12:48 | 54.61119 | -5.87662 | 21 ft | 1 kts | 120° |
| 2026-04-14 12:48 | 54.61118 | -5.87659 | 21 ft | 0 kts | 120° |